sensor_id;sensor_type;location;lat;lon;timestamp;P1;durP1;ratioP1;P2;durP2;ratioP2
46042;SDS011;32533;-33.854;18.542;2022-08-21T00:00:17;13.30;;;7.07;;
46042;SDS011;32533;-33.854;18.542;2022-08-21T00:02:46;13.35;;;7.30;;
46042;SDS011;32533;-33.854;18.542;2022-08-21T00:05:22;11.02;;;6.45;;
46042;SDS011;32533;-33.854;18.542;2022-08-21T00:07:49;15.35;;;6.80;;
46042;SDS011;32533;-33.854;18.542;2022-08-21T00:10:16;17.23;;;7.97;;
46042;SDS011;32533;-33.854;18.542;2022-08-21T00:12:44;20.27;;;7.47;;
46042;SDS011;32533;-33.854;18.542;2022-08-21T00:15:12;13.15;;;6.72;;
46042;SDS011;32533;-33.854;18.542;2022-08-21T00:17:40;16.15;;;7.00;;
46042;SDS011;32533;-33.854;18.542;2022-08-21T00:20:08;20.13;;;8.43;;
46042;SDS011;32533;-33.854;18.542;2022-08-21T00:22:36;18.90;;;7.20;;
46042;SDS011;32533;-33.854;18.542;2022-08-21T00:25:05;16.17;;;7.68;;
46042;SDS011;32533;-33.854;18.542;2022-08-21T00:27:33;14.60;;;6.88;;
46042;SDS011;32533;-33.854;18.542;2022-08-21T00:30:00;16.27;;;8.10;;
46042;SDS011;32533;-33.854;18.542;2022-08-21T00:32:26;10.95;;;6.47;;
46042;SDS011;32533;-33.854;18.542;2022-08-21T00:34:54;14.32;;;7.47;;
46042;SDS011;32533;-33.854;18.542;2022-08-21T00:37:20;15.80;;;7.25;;
46042;SDS011;32533;-33.854;18.542;2022-08-21T00:39:47;26.98;;;8.15;;
46042;SDS011;32533;-33.854;18.542;2022-08-21T00:42:14;14.15;;;7.85;;
46042;SDS011;32533;-33.854;18.542;2022-08-21T00:44:42;21.63;;;8.35;;
46042;SDS011;32533;-33.854;18.542;2022-08-21T00:47:10;14.27;;;6.85;;
46042;SDS011;32533;-33.854;18.542;2022-08-21T00:49:37;12.60;;;6.72;;
46042;SDS011;32533;-33.854;18.542;2022-08-21T00:52:05;15.57;;;7.65;;
46042;SDS011;32533;-33.854;18.542;2022-08-21T00:54:35;13.52;;;6.70;;
46042;SDS011;32533;-33.854;18.542;2022-08-21T00:57:09;16.67;;;7.38;;
46042;SDS011;32533;-33.854;18.542;2022-08-21T00:59:41;16.23;;;7.90;;
46042;SDS011;32533;-33.854;18.542;2022-08-21T01:02:12;33.85;;;8.63;;
46042;SDS011;32533;-33.854;18.542;2022-08-21T01:04:39;11.20;;;5.70;;
46042;SDS011;32533;-33.854;18.542;2022-08-21T01:07:06;13.60;;;5.97;;
46042;SDS011;32533;-33.854;18.542;2022-08-21T01:09:33;18.13;;;6.43;;
46042;SDS011;32533;-33.854;18.542;2022-08-21T01:12:00;8.10;;;4.28;;
46042;SDS011;32533;-33.854;18.542;2022-08-21T01:14:27;14.93;;;4.32;;
46042;SDS011;32533;-33.854;18.542;2022-08-21T01:16:56;10.55;;;4.82;;
46042;SDS011;32533;-33.854;18.542;2022-08-21T01:19:23;7.78;;;4.05;;
46042;SDS011;32533;-33.854;18.542;2022-08-21T01:21:54;18.23;;;7.30;;
46042;SDS011;32533;-33.854;18.542;2022-08-21T01:24:21;12.63;;;4.75;;
46042;SDS011;32533;-33.854;18.542;2022-08-21T01:26:48;13.30;;;4.57;;
46042;SDS011;32533;-33.854;18.542;2022-08-21T01:29:20;8.55;;;3.75;;
46042;SDS011;32533;-33.854;18.542;2022-08-21T01:31:51;13.55;;;5.38;;
46042;SDS011;32533;-33.854;18.542;2022-08-21T01:34:18;15.77;;;5.57;;
46042;SDS011;32533;-33.854;18.542;2022-08-21T01:36:45;29.45;;;6.20;;
46042;SDS011;32533;-33.854;18.542;2022-08-21T01:39:13;12.30;;;4.03;;
46042;SDS011;32533;-33.854;18.542;2022-08-21T01:41:40;16.48;;;4.82;;
46042;SDS011;32533;-33.854;18.542;2022-08-21T01:44:07;18.15;;;5.00;;
46042;SDS011;32533;-33.854;18.542;2022-08-21T01:46:33;12.85;;;4.32;;
46042;SDS011;32533;-33.854;18.542;2022-08-21T01:49:00;12.07;;;5.03;;
46042;SDS011;32533;-33.854;18.542;2022-08-21T01:51:27;13.05;;;5.38;;
46042;SDS011;32533;-33.854;18.542;2022-08-21T01:53:53;14.40;;;5.13;;
46042;SDS011;32533;-33.854;18.542;2022-08-21T01:56:20;19.30;;;5.82;;
46042;SDS011;32533;-33.854;18.542;2022-08-21T01:58:47;24.73;;;6.95;;
46042;SDS011;32533;-33.854;18.542;2022-08-21T02:01:14;20.10;;;6.85;;
46042;SDS011;32533;-33.854;18.542;2022-08-21T02:03:41;37.05;;;7.43;;
46042;SDS011;32533;-33.854;18.542;2022-08-21T02:06:11;15.93;;;5.78;;
46042;SDS011;32533;-33.854;18.542;2022-08-21T02:08:40;14.90;;;4.78;;
46042;SDS011;32533;-33.854;18.542;2022-08-21T02:11:06;20.35;;;5.55;;
46042;SDS011;32533;-33.854;18.542;2022-08-21T02:13:33;18.33;;;5.82;;
46042;SDS011;32533;-33.854;18.542;2022-08-21T02:15:59;16.55;;;5.10;;
46042;SDS011;32533;-33.854;18.542;2022-08-21T02:18:26;18.73;;;8.90;;
46042;SDS011;32533;-33.854;18.542;2022-08-21T02:20:52;12.57;;;4.97;;
46042;SDS011;32533;-33.854;18.542;2022-08-21T02:23:19;14.02;;;5.85;;
46042;SDS011;32533;-33.854;18.542;2022-08-21T02:25:45;11.60;;;6.90;;
46042;SDS011;32533;-33.854;18.542;2022-08-21T02:28:13;19.35;;;7.15;;
46042;SDS011;32533;-33.854;18.542;2022-08-21T02:30:42;14.77;;;6.47;;
46042;SDS011;32533;-33.854;18.542;2022-08-21T02:33:11;19.48;;;6.35;;
46042;SDS011;32533;-33.854;18.542;2022-08-21T02:35:39;16.38;;;6.95;;
46042;SDS011;32533;-33.854;18.542;2022-08-21T02:38:10;16.45;;;6.80;;
46042;SDS011;32533;-33.854;18.542;2022-08-21T02:40:39;13.43;;;7.00;;
46042;SDS011;32533;-33.854;18.542;2022-08-21T02:43:07;15.63;;;6.70;;
46042;SDS011;32533;-33.854;18.542;2022-08-21T02:45:34;17.13;;;8.07;;
46042;SDS011;32533;-33.854;18.542;2022-08-21T02:48:03;18.73;;;7.35;;
46042;SDS011;32533;-33.854;18.542;2022-08-21T02:50:33;19.27;;;6.57;;
46042;SDS011;32533;-33.854;18.542;2022-08-21T02:53:02;13.30;;;6.80;;
46042;SDS011;32533;-33.854;18.542;2022-08-21T02:55:32;11.68;;;6.85;;
46042;SDS011;32533;-33.854;18.542;2022-08-21T02:58:00;13.70;;;6.78;;
46042;SDS011;32533;-33.854;18.542;2022-08-21T03:00:29;26.33;;;10.52;;
46042;SDS011;32533;-33.854;18.542;2022-08-21T03:02:57;23.42;;;10.27;;
46042;SDS011;32533;-33.854;18.542;2022-08-21T03:05:25;20.55;;;11.98;;
46042;SDS011;32533;-33.854;18.542;2022-08-21T03:07:53;15.10;;;7.53;;
46042;SDS011;32533;-33.854;18.542;2022-08-21T03:10:20;14.50;;;7.78;;
46042;SDS011;32533;-33.854;18.542;2022-08-21T03:12:48;15.35;;;5.80;;
46042;SDS011;32533;-33.854;18.542;2022-08-21T03:15:15;11.85;;;6.13;;
46042;SDS011;32533;-33.854;18.542;2022-08-21T03:17:44;10.00;;;6.68;;
46042;SDS011;32533;-33.854;18.542;2022-08-21T03:20:12;10.00;;;6.32;;
46042;SDS011;32533;-33.854;18.542;2022-08-21T03:22:40;11.40;;;6.05;;
46042;SDS011;32533;-33.854;18.542;2022-08-21T03:25:07;11.95;;;6.93;;
46042;SDS011;32533;-33.854;18.542;2022-08-21T03:27:36;13.55;;;6.15;;
46042;SDS011;32533;-33.854;18.542;2022-08-21T03:30:03;10.88;;;6.75;;
46042;SDS011;32533;-33.854;18.542;2022-08-21T03:32:32;20.73;;;7.85;;
46042;SDS011;32533;-33.854;18.542;2022-08-21T03:35:00;20.88;;;12.93;;
46042;SDS011;32533;-33.854;18.542;2022-08-21T03:37:28;25.10;;;14.38;;
46042;SDS011;32533;-33.854;18.542;2022-08-21T03:39:54;15.68;;;10.30;;
46042;SDS011;32533;-33.854;18.542;2022-08-21T03:42:21;12.00;;;7.15;;
46042;SDS011;32533;-33.854;18.542;2022-08-21T03:44:48;15.23;;;8.10;;
46042;SDS011;32533;-33.854;18.542;2022-08-21T03:47:15;10.90;;;6.85;;
46042;SDS011;32533;-33.854;18.542;2022-08-21T03:49:41;10.35;;;7.43;;
46042;SDS011;32533;-33.854;18.542;2022-08-21T03:52:08;13.95;;;6.35;;
46042;SDS011;32533;-33.854;18.542;2022-08-21T03:54:34;21.90;;;6.60;;
46042;SDS011;32533;-33.854;18.542;2022-08-21T03:57:01;16.27;;;6.90;;
46042;SDS011;32533;-33.854;18.542;2022-08-21T03:59:28;10.82;;;7.03;;
46042;SDS011;32533;-33.854;18.542;2022-08-21T04:01:55;12.98;;;7.28;;
46042;SDS011;32533;-33.854;18.542;2022-08-21T04:04:24;13.23;;;7.57;;
46042;SDS011;32533;-33.854;18.542;2022-08-21T04:06:51;11.48;;;7.15;;
46042;SDS011;32533;-33.854;18.542;2022-08-21T04:09:18;10.38;;;6.90;;
46042;SDS011;32533;-33.854;18.542;2022-08-21T04:11:45;12.63;;;8.00;;
46042;SDS011;32533;-33.854;18.542;2022-08-21T04:14:12;12.05;;;6.22;;
46042;SDS011;32533;-33.854;18.542;2022-08-21T04:16:40;10.00;;;6.40;;
46042;SDS011;32533;-33.854;18.542;2022-08-21T04:19:07;10.90;;;6.68;;
46042;SDS011;32533;-33.854;18.542;2022-08-21T04:21:35;31.90;;;7.97;;
46042;SDS011;32533;-33.854;18.542;2022-08-21T04:24:02;27.35;;;9.50;;
46042;SDS011;32533;-33.854;18.542;2022-08-21T04:26:30;18.48;;;9.60;;
46042;SDS011;32533;-33.854;18.542;2022-08-21T04:28:57;17.55;;;8.73;;
46042;SDS011;32533;-33.854;18.542;2022-08-21T04:31:24;14.10;;;8.02;;
46042;SDS011;32533;-33.854;18.542;2022-08-21T04:33:51;31.02;;;9.93;;
46042;SDS011;32533;-33.854;18.542;2022-08-21T04:36:17;18.70;;;7.28;;
46042;SDS011;32533;-33.854;18.542;2022-08-21T04:38:44;11.32;;;7.00;;
46042;SDS011;32533;-33.854;18.542;2022-08-21T04:41:10;11.25;;;7.18;;
46042;SDS011;32533;-33.854;18.542;2022-08-21T04:43:38;12.80;;;7.35;;
46042;SDS011;32533;-33.854;18.542;2022-08-21T04:46:05;10.70;;;5.97;;
46042;SDS011;32533;-33.854;18.542;2022-08-21T04:48:31;8.88;;;5.78;;
46042;SDS011;32533;-33.854;18.542;2022-08-21T04:51:10;11.85;;;6.30;;
46042;SDS011;32533;-33.854;18.542;2022-08-21T04:54:02;9.43;;;6.75;;
46042;SDS011;32533;-33.854;18.542;2022-08-21T04:56:37;8.82;;;5.32;;
46042;SDS011;32533;-33.854;18.542;2022-08-21T04:59:17;10.05;;;5.53;;
46042;SDS011;32533;-33.854;18.542;2022-08-21T05:01:48;9.50;;;5.03;;
46042;SDS011;32533;-33.854;18.542;2022-08-21T05:04:16;12.13;;;5.55;;
46042;SDS011;32533;-33.854;18.542;2022-08-21T05:06:49;10.70;;;4.68;;
46042;SDS011;32533;-33.854;18.542;2022-08-21T05:09:17;16.77;;;5.82;;
46042;SDS011;32533;-33.854;18.542;2022-08-21T05:11:44;10.95;;;4.57;;
46042;SDS011;32533;-33.854;18.542;2022-08-21T05:14:11;16.27;;;4.60;;
46042;SDS011;32533;-33.854;18.542;2022-08-21T05:16:38;20.20;;;6.55;;
46042;SDS011;32533;-33.854;18.542;2022-08-21T05:19:07;20.88;;;11.20;;
46042;SDS011;32533;-33.854;18.542;2022-08-21T05:21:34;23.30;;;12.85;;
46042;SDS011;32533;-33.854;18.542;2022-08-21T05:24:04;25.83;;;8.40;;
46042;SDS011;32533;-33.854;18.542;2022-08-21T05:26:30;11.15;;;5.57;;
46042;SDS011;32533;-33.854;18.542;2022-08-21T05:28:57;8.15;;;5.03;;
46042;SDS011;32533;-33.854;18.542;2022-08-21T05:31:23;9.50;;;4.40;;
46042;SDS011;32533;-33.854;18.542;2022-08-21T05:33:50;11.73;;;3.95;;
46042;SDS011;32533;-33.854;18.542;2022-08-21T05:36:17;11.80;;;3.90;;
46042;SDS011;32533;-33.854;18.542;2022-08-21T05:38:44;6.88;;;3.47;;
46042;SDS011;32533;-33.854;18.542;2022-08-21T05:41:10;11.98;;;3.42;;
46042;SDS011;32533;-33.854;18.542;2022-08-21T05:43:37;7.63;;;4.40;;
46042;SDS011;32533;-33.854;18.542;2022-08-21T05:46:04;9.25;;;3.42;;
46042;SDS011;32533;-33.854;18.542;2022-08-21T05:48:32;7.78;;;3.10;;
46042;SDS011;32533;-33.854;18.542;2022-08-21T05:51:04;9.88;;;4.15;;
46042;SDS011;32533;-33.854;18.542;2022-08-21T05:53:33;9.10;;;3.53;;
46042;SDS011;32533;-33.854;18.542;2022-08-21T05:56:00;8.02;;;3.03;;
46042;SDS011;32533;-33.854;18.542;2022-08-21T05:58:29;9.52;;;5.55;;
46042;SDS011;32533;-33.854;18.542;2022-08-21T06:00:58;36.10;;;23.13;;
46042;SDS011;32533;-33.854;18.542;2022-08-21T06:03:28;23.52;;;13.32;;
46042;SDS011;32533;-33.854;18.542;2022-08-21T06:05:56;13.75;;;7.85;;
46042;SDS011;32533;-33.854;18.542;2022-08-21T06:08:24;16.92;;;6.88;;
46042;SDS011;32533;-33.854;18.542;2022-08-21T06:10:51;14.20;;;6.07;;
46042;SDS011;32533;-33.854;18.542;2022-08-21T06:13:19;10.25;;;5.13;;
46042;SDS011;32533;-33.854;18.542;2022-08-21T06:15:47;27.10;;;9.63;;
46042;SDS011;32533;-33.854;18.542;2022-08-21T06:18:14;26.13;;;9.18;;
46042;SDS011;32533;-33.854;18.542;2022-08-21T06:20:41;22.42;;;9.63;;
46042;SDS011;32533;-33.854;18.542;2022-08-21T06:23:09;27.67;;;6.38;;
46042;SDS011;32533;-33.854;18.542;2022-08-21T06:25:36;17.02;;;5.47;;
46042;SDS011;32533;-33.854;18.542;2022-08-21T06:28:06;16.90;;;5.53;;
46042;SDS011;32533;-33.854;18.542;2022-08-21T06:30:34;22.45;;;5.60;;
46042;SDS011;32533;-33.854;18.542;2022-08-21T06:33:02;20.98;;;5.78;;
46042;SDS011;32533;-33.854;18.542;2022-08-21T06:35:29;20.50;;;4.53;;
46042;SDS011;32533;-33.854;18.542;2022-08-21T06:37:56;19.80;;;6.30;;
46042;SDS011;32533;-33.854;18.542;2022-08-21T06:40:23;9.95;;;3.70;;
46042;SDS011;32533;-33.854;18.542;2022-08-21T06:42:53;12.95;;;5.07;;
46042;SDS011;32533;-33.854;18.542;2022-08-21T06:45:20;12.32;;;4.47;;
46042;SDS011;32533;-33.854;18.542;2022-08-21T06:47:47;11.57;;;4.13;;
46042;SDS011;32533;-33.854;18.542;2022-08-21T06:50:14;12.18;;;4.53;;
46042;SDS011;32533;-33.854;18.542;2022-08-21T06:52:40;9.50;;;3.60;;
46042;SDS011;32533;-33.854;18.542;2022-08-21T06:55:07;13.13;;;4.43;;
46042;SDS011;32533;-33.854;18.542;2022-08-21T06:57:35;19.05;;;5.82;;
46042;SDS011;32533;-33.854;18.542;2022-08-21T07:00:03;13.30;;;4.47;;
46042;SDS011;32533;-33.854;18.542;2022-08-21T07:02:31;9.40;;;4.07;;
46042;SDS011;32533;-33.854;18.542;2022-08-21T07:05:02;12.48;;;5.18;;
46042;SDS011;32533;-33.854;18.542;2022-08-21T07:07:28;11.68;;;4.93;;
46042;SDS011;32533;-33.854;18.542;2022-08-21T07:09:55;16.17;;;4.07;;
46042;SDS011;32533;-33.854;18.542;2022-08-21T07:12:21;8.05;;;4.13;;
46042;SDS011;32533;-33.854;18.542;2022-08-21T07:14:48;16.02;;;4.00;;
46042;SDS011;32533;-33.854;18.542;2022-08-21T07:17:14;9.60;;;3.15;;
46042;SDS011;32533;-33.854;18.542;2022-08-21T07:19:40;8.70;;;3.58;;
46042;SDS011;32533;-33.854;18.542;2022-08-21T07:22:07;16.42;;;3.50;;
46042;SDS011;32533;-33.854;18.542;2022-08-21T07:24:34;11.52;;;4.72;;
46042;SDS011;32533;-33.854;18.542;2022-08-21T07:27:00;13.10;;;3.78;;
46042;SDS011;32533;-33.854;18.542;2022-08-21T07:29:27;14.95;;;3.28;;
46042;SDS011;32533;-33.854;18.542;2022-08-21T07:31:53;10.43;;;3.42;;
46042;SDS011;32533;-33.854;18.542;2022-08-21T07:34:20;12.27;;;2.97;;
46042;SDS011;32533;-33.854;18.542;2022-08-21T07:36:46;8.32;;;3.60;;
46042;SDS011;32533;-33.854;18.542;2022-08-21T07:39:13;12.88;;;2.55;;
46042;SDS011;32533;-33.854;18.542;2022-08-21T07:41:39;7.45;;;2.75;;
46042;SDS011;32533;-33.854;18.542;2022-08-21T07:44:06;11.13;;;2.50;;
46042;SDS011;32533;-33.854;18.542;2022-08-21T07:46:32;8.13;;;2.05;;
46042;SDS011;32533;-33.854;18.542;2022-08-21T07:48:59;8.43;;;2.50;;
46042;SDS011;32533;-33.854;18.542;2022-08-21T07:51:26;10.18;;;2.35;;
46042;SDS011;32533;-33.854;18.542;2022-08-21T07:53:55;10.43;;;1.92;;
46042;SDS011;32533;-33.854;18.542;2022-08-21T07:56:22;5.50;;;1.73;;
46042;SDS011;32533;-33.854;18.542;2022-08-21T07:58:49;7.18;;;2.20;;
46042;SDS011;32533;-33.854;18.542;2022-08-21T08:01:15;6.50;;;1.80;;
46042;SDS011;32533;-33.854;18.542;2022-08-21T08:03:42;4.95;;;2.67;;
46042;SDS011;32533;-33.854;18.542;2022-08-21T08:06:10;6.63;;;1.88;;
46042;SDS011;32533;-33.854;18.542;2022-08-21T08:08:38;6.78;;;2.85;;
46042;SDS011;32533;-33.854;18.542;2022-08-21T08:11:06;16.83;;;1.70;;
46042;SDS011;32533;-33.854;18.542;2022-08-21T08:13:39;5.00;;;1.90;;
46042;SDS011;32533;-33.854;18.542;2022-08-21T08:16:09;4.03;;;1.57;;
46042;SDS011;32533;-33.854;18.542;2022-08-21T08:18:36;5.60;;;1.98;;
46042;SDS011;32533;-33.854;18.542;2022-08-21T08:21:04;7.25;;;1.65;;
46042;SDS011;32533;-33.854;18.542;2022-08-21T08:23:31;4.57;;;2.50;;
46042;SDS011;32533;-33.854;18.542;2022-08-21T08:25:58;7.47;;;1.75;;
46042;SDS011;32533;-33.854;18.542;2022-08-21T08:28:25;5.32;;;1.10;;
46042;SDS011;32533;-33.854;18.542;2022-08-21T08:30:52;5.75;;;1.50;;
46042;SDS011;32533;-33.854;18.542;2022-08-21T08:33:18;15.95;;;3.72;;
46042;SDS011;32533;-33.854;18.542;2022-08-21T08:35:46;4.28;;;1.90;;
46042;SDS011;32533;-33.854;18.542;2022-08-21T08:38:14;3.33;;;1.20;;
46042;SDS011;32533;-33.854;18.542;2022-08-21T08:40:46;7.45;;;1.70;;
46042;SDS011;32533;-33.854;18.542;2022-08-21T08:43:14;5.68;;;1.50;;
46042;SDS011;32533;-33.854;18.542;2022-08-21T08:45:42;8.27;;;2.03;;
46042;SDS011;32533;-33.854;18.542;2022-08-21T08:48:12;4.32;;;1.10;;
46042;SDS011;32533;-33.854;18.542;2022-08-21T08:50:45;3.13;;;2.00;;
46042;SDS011;32533;-33.854;18.542;2022-08-21T08:53:33;4.50;;;1.40;;
46042;SDS011;32533;-33.854;18.542;2022-08-21T08:56:07;3.85;;;1.10;;
46042;SDS011;32533;-33.854;18.542;2022-08-21T08:58:36;2.95;;;1.35;;
46042;SDS011;32533;-33.854;18.542;2022-08-21T09:01:09;2.85;;;1.73;;
46042;SDS011;32533;-33.854;18.542;2022-08-21T09:03:41;1.92;;;0.98;;
46042;SDS011;32533;-33.854;18.542;2022-08-21T09:06:13;5.93;;;1.67;;
46042;SDS011;32533;-33.854;18.542;2022-08-21T09:08:52;5.63;;;1.98;;
46042;SDS011;32533;-33.854;18.542;2022-08-21T09:11:45;7.13;;;2.28;;
46042;SDS011;32533;-33.854;18.542;2022-08-21T09:14:58;4.93;;;1.45;;
46042;SDS011;32533;-33.854;18.542;2022-08-21T09:26:02;9.05;;;3.13;;
46042;SDS011;32533;-33.854;18.542;2022-08-21T09:28:51;5.20;;;2.15;;
46042;SDS011;32533;-33.854;18.542;2022-08-21T09:31:24;9.35;;;3.15;;
46042;SDS011;32533;-33.854;18.542;2022-08-21T09:34:00;20.33;;;2.85;;
46042;SDS011;32533;-33.854;18.542;2022-08-21T09:36:41;5.15;;;2.70;;
46042;SDS011;32533;-33.854;18.542;2022-08-21T09:42:03;8.23;;;2.25;;
46042;SDS011;32533;-33.854;18.542;2022-08-21T09:44:34;11.55;;;2.10;;
46042;SDS011;32533;-33.854;18.542;2022-08-21T09:47:06;7.43;;;2.35;;
46042;SDS011;32533;-33.854;18.542;2022-08-21T09:49:34;1.45;;;1.10;;
46042;SDS011;32533;-33.854;18.542;2022-08-21T09:52:04;5.03;;;1.70;;
46042;SDS011;32533;-33.854;18.542;2022-08-21T09:54:43;5.78;;;1.63;;
46042;SDS011;32533;-33.854;18.542;2022-08-21T09:57:12;8.50;;;2.50;;
46042;SDS011;32533;-33.854;18.542;2022-08-21T10:00:24;6.22;;;2.58;;
46042;SDS011;32533;-33.854;18.542;2022-08-21T10:03:06;10.38;;;2.00;;
46042;SDS011;32533;-33.854;18.542;2022-08-21T10:05:35;5.38;;;1.75;;
46042;SDS011;32533;-33.854;18.542;2022-08-21T10:08:03;5.25;;;1.75;;
46042;SDS011;32533;-33.854;18.542;2022-08-21T10:10:32;5.07;;;2.20;;
46042;SDS011;32533;-33.854;18.542;2022-08-21T10:21:43;11.35;;;3.22;;
46042;SDS011;32533;-33.854;18.542;2022-08-21T10:24:19;9.10;;;2.65;;
46042;SDS011;32533;-33.854;18.542;2022-08-21T10:30:13;3.40;;;1.02;;
46042;SDS011;32533;-33.854;18.542;2022-08-21T10:41:27;3.97;;;1.30;;
46042;SDS011;32533;-33.854;18.542;2022-08-21T10:52:34;6.22;;;1.75;;
46042;SDS011;32533;-33.854;18.542;2022-08-21T10:55:15;7.22;;;1.63;;
46042;SDS011;32533;-33.854;18.542;2022-08-21T11:00:12;6.95;;;1.35;;
46042;SDS011;32533;-33.854;18.542;2022-08-21T11:05:38;3.30;;;1.42;;
46042;SDS011;32533;-33.854;18.542;2022-08-21T11:09:01;11.05;;;2.35;;
46042;SDS011;32533;-33.854;18.542;2022-08-21T11:11:09;4.50;;;1.08;;
46042;SDS011;32533;-33.854;18.542;2022-08-21T11:13:44;4.75;;;1.15;;
46042;SDS011;32533;-33.854;18.542;2022-08-21T11:25:09;9.02;;;3.85;;
46042;SDS011;32533;-33.854;18.542;2022-08-21T11:27:45;5.53;;;2.25;;
46042;SDS011;32533;-33.854;18.542;2022-08-21T11:30:21;5.45;;;1.23;;
46042;SDS011;32533;-33.854;18.542;2022-08-21T11:32:57;6.50;;;1.55;;
46042;SDS011;32533;-33.854;18.542;2022-08-21T11:44:25;9.50;;;1.88;;
46042;SDS011;32533;-33.854;18.542;2022-08-21T11:46:48;5.22;;;1.10;;
46042;SDS011;32533;-33.854;18.542;2022-08-21T11:52:23;4.70;;;1.20;;
46042;SDS011;32533;-33.854;18.542;2022-08-21T11:57:58;6.35;;;1.58;;
46042;SDS011;32533;-33.854;18.542;2022-08-21T12:00:39;4.10;;;1.60;;
46042;SDS011;32533;-33.854;18.542;2022-08-21T12:05:57;4.43;;;1.80;;
46042;SDS011;32533;-33.854;18.542;2022-08-21T12:08:31;4.65;;;1.40;;
46042;SDS011;32533;-33.854;18.542;2022-08-21T12:11:10;12.13;;;3.13;;
46042;SDS011;32533;-33.854;18.542;2022-08-21T12:16:31;4.82;;;2.17;;
46042;SDS011;32533;-33.854;18.542;2022-08-21T12:19:04;6.60;;;2.42;;
46042;SDS011;32533;-33.854;18.542;2022-08-21T12:21:51;5.45;;;2.15;;
46042;SDS011;32533;-33.854;18.542;2022-08-21T12:29:25;9.35;;;3.30;;
46042;SDS011;32533;-33.854;18.542;2022-08-21T12:32:20;5.93;;;2.10;;
46042;SDS011;32533;-33.854;18.542;2022-08-21T12:39:54;14.10;;;2.72;;
46042;SDS011;32533;-33.854;18.542;2022-08-21T12:42:36;7.47;;;2.30;;
46042;SDS011;32533;-33.854;18.542;2022-08-21T12:45:17;3.22;;;1.50;;
46042;SDS011;32533;-33.854;18.542;2022-08-21T12:53:15;6.72;;;2.50;;
46042;SDS011;32533;-33.854;18.542;2022-08-21T12:56:01;13.45;;;2.50;;
46042;SDS011;32533;-33.854;18.542;2022-08-21T12:58:29;10.90;;;3.38;;
46042;SDS011;32533;-33.854;18.542;2022-08-21T13:01:07;17.75;;;4.13;;
46042;SDS011;32533;-33.854;18.542;2022-08-21T13:03:40;7.45;;;3.08;;
46042;SDS011;32533;-33.854;18.542;2022-08-21T13:06:07;10.65;;;3.17;;
46042;SDS011;32533;-33.854;18.542;2022-08-21T13:08:43;10.52;;;3.10;;
46042;SDS011;32533;-33.854;18.542;2022-08-21T13:11:12;8.23;;;3.60;;
46042;SDS011;32533;-33.854;18.542;2022-08-21T13:13:42;11.10;;;3.72;;
46042;SDS011;32533;-33.854;18.542;2022-08-21T13:16:13;8.52;;;2.75;;
46042;SDS011;32533;-33.854;18.542;2022-08-21T13:19:04;19.48;;;2.92;;
46042;SDS011;32533;-33.854;18.542;2022-08-21T13:21:34;7.80;;;3.75;;
46042;SDS011;32533;-33.854;18.542;2022-08-21T13:26:40;5.57;;;3.53;;
46042;SDS011;32533;-33.854;18.542;2022-08-21T13:29:08;9.32;;;2.88;;
46042;SDS011;32533;-33.854;18.542;2022-08-21T13:31:37;11.40;;;3.83;;
46042;SDS011;32533;-33.854;18.542;2022-08-21T13:34:08;11.45;;;2.60;;
46042;SDS011;32533;-33.854;18.542;2022-08-21T13:36:37;10.23;;;3.05;;
46042;SDS011;32533;-33.854;18.542;2022-08-21T13:39:10;16.35;;;3.38;;
46042;SDS011;32533;-33.854;18.542;2022-08-21T13:41:41;20.00;;;3.42;;
46042;SDS011;32533;-33.854;18.542;2022-08-21T13:46:52;16.02;;;5.38;;
46042;SDS011;32533;-33.854;18.542;2022-08-21T13:49:21;14.75;;;4.20;;
46042;SDS011;32533;-33.854;18.542;2022-08-21T13:51:54;14.20;;;3.65;;
46042;SDS011;32533;-33.854;18.542;2022-08-21T13:56:53;14.52;;;3.33;;
46042;SDS011;32533;-33.854;18.542;2022-08-21T13:59:24;18.85;;;3.75;;
46042;SDS011;32533;-33.854;18.542;2022-08-21T14:01:54;20.60;;;4.68;;
46042;SDS011;32533;-33.854;18.542;2022-08-21T14:04:36;7.30;;;2.72;;
46042;SDS011;32533;-33.854;18.542;2022-08-21T14:07:19;8.48;;;2.15;;
46042;SDS011;32533;-33.854;18.542;2022-08-21T14:10:02;12.13;;;3.35;;
46042;SDS011;32533;-33.854;18.542;2022-08-21T14:12:36;10.97;;;2.77;;
46042;SDS011;32533;-33.854;18.542;2022-08-21T14:15:08;9.13;;;2.58;;
46042;SDS011;32533;-33.854;18.542;2022-08-21T14:17:39;7.53;;;2.03;;
46042;SDS011;32533;-33.854;18.542;2022-08-21T14:20:10;6.43;;;2.03;;
46042;SDS011;32533;-33.854;18.542;2022-08-21T14:22:55;8.48;;;1.95;;
46042;SDS011;32533;-33.854;18.542;2022-08-21T14:30:31;6.88;;;3.03;;
46042;SDS011;32533;-33.854;18.542;2022-08-21T14:32:59;7.72;;;2.92;;
46042;SDS011;32533;-33.854;18.542;2022-08-21T14:35:26;8.95;;;2.28;;
46042;SDS011;32533;-33.854;18.542;2022-08-21T14:37:53;19.25;;;2.72;;
46042;SDS011;32533;-33.854;18.542;2022-08-21T14:40:22;14.82;;;3.70;;
46042;SDS011;32533;-33.854;18.542;2022-08-21T14:42:50;9.73;;;2.33;;
46042;SDS011;32533;-33.854;18.542;2022-08-21T14:47:51;9.63;;;2.03;;
46042;SDS011;32533;-33.854;18.542;2022-08-21T14:50:17;6.88;;;2.15;;
46042;SDS011;32533;-33.854;18.542;2022-08-21T14:52:44;3.63;;;1.80;;
46042;SDS011;32533;-33.854;18.542;2022-08-21T14:55:12;9.63;;;2.97;;
46042;SDS011;32533;-33.854;18.542;2022-08-21T14:57:40;7.82;;;2.85;;
46042;SDS011;32533;-33.854;18.542;2022-08-21T15:00:11;10.25;;;3.35;;
46042;SDS011;32533;-33.854;18.542;2022-08-21T15:02:39;14.95;;;3.70;;
46042;SDS011;32533;-33.854;18.542;2022-08-21T15:05:06;16.70;;;2.80;;
46042;SDS011;32533;-33.854;18.542;2022-08-21T15:07:32;12.73;;;3.83;;
46042;SDS011;32533;-33.854;18.542;2022-08-21T15:09:59;12.27;;;2.28;;
46042;SDS011;32533;-33.854;18.542;2022-08-21T15:12:26;8.98;;;2.38;;
46042;SDS011;32533;-33.854;18.542;2022-08-21T15:14:52;6.05;;;1.80;;
46042;SDS011;32533;-33.854;18.542;2022-08-21T15:17:19;10.55;;;2.67;;
46042;SDS011;32533;-33.854;18.542;2022-08-21T15:19:46;7.03;;;2.42;;
46042;SDS011;32533;-33.854;18.542;2022-08-21T15:22:12;8.50;;;2.03;;
46042;SDS011;32533;-33.854;18.542;2022-08-21T15:24:39;15.10;;;2.60;;
46042;SDS011;32533;-33.854;18.542;2022-08-21T15:27:06;12.77;;;2.60;;
46042;SDS011;32533;-33.854;18.542;2022-08-21T15:29:34;8.77;;;3.65;;
46042;SDS011;32533;-33.854;18.542;2022-08-21T15:32:03;13.23;;;4.53;;
46042;SDS011;32533;-33.854;18.542;2022-08-21T15:34:41;16.25;;;6.60;;
46042;SDS011;32533;-33.854;18.542;2022-08-21T15:37:07;12.45;;;3.45;;
46042;SDS011;32533;-33.854;18.542;2022-08-21T15:39:34;8.38;;;3.72;;
46042;SDS011;32533;-33.854;18.542;2022-08-21T15:42:02;8.90;;;2.50;;
46042;SDS011;32533;-33.854;18.542;2022-08-21T15:44:28;11.55;;;4.25;;
46042;SDS011;32533;-33.854;18.542;2022-08-21T15:46:55;12.57;;;4.90;;
46042;SDS011;32533;-33.854;18.542;2022-08-21T15:49:24;47.60;;;11.07;;
46042;SDS011;32533;-33.854;18.542;2022-08-21T15:51:50;27.58;;;6.80;;
46042;SDS011;32533;-33.854;18.542;2022-08-21T15:54:17;16.95;;;4.88;;
46042;SDS011;32533;-33.854;18.542;2022-08-21T15:56:44;11.75;;;3.35;;
46042;SDS011;32533;-33.854;18.542;2022-08-21T15:59:18;9.13;;;2.97;;
46042;SDS011;32533;-33.854;18.542;2022-08-21T16:01:50;10.57;;;5.35;;
46042;SDS011;32533;-33.854;18.542;2022-08-21T16:04:25;6.72;;;4.82;;
46042;SDS011;32533;-33.854;18.542;2022-08-21T16:06:52;9.63;;;4.05;;
46042;SDS011;32533;-33.854;18.542;2022-08-21T16:09:19;20.42;;;3.13;;
46042;SDS011;32533;-33.854;18.542;2022-08-21T16:11:46;7.47;;;2.30;;
46042;SDS011;32533;-33.854;18.542;2022-08-21T16:14:14;23.60;;;6.50;;